createdAt,value
2017-09-20T00:00:05.539Z,9.50
2017-09-20T00:02:35.159Z,9.35
2017-09-20T00:05:04.776Z,8.48
2017-09-20T00:07:33.629Z,8.45
2017-09-20T00:10:02.496Z,10.40
2017-09-20T00:12:31.352Z,8.55
2017-09-20T00:15:00.240Z,9.23
2017-09-20T00:17:29.098Z,9.13
2017-09-20T00:19:57.947Z,9.10
2017-09-20T00:22:26.784Z,8.10
2017-09-20T00:24:55.628Z,8.30
2017-09-20T00:27:24.481Z,8.77
2017-09-20T00:29:54.095Z,7.03
2017-09-20T00:32:23.070Z,8.90
2017-09-20T00:34:51.908Z,8.85
2017-09-20T00:37:20.763Z,8.80
2017-09-20T00:39:49.613Z,8.73
2017-09-20T00:42:19.229Z,9.00
2017-09-20T00:44:48.071Z,8.60
2017-09-20T00:47:16.924Z,9.15
2017-09-20T00:49:45.760Z,8.57
2017-09-20T00:52:14.617Z,8.35
2017-09-20T00:54:44.255Z,9.10
2017-09-20T00:57:12.411Z,8.80
2017-09-20T00:59:41.336Z,8.50
2017-09-20T01:02:10.209Z,8.52
2017-09-20T01:04:39.063Z,8.80
2017-09-20T01:07:07.920Z,9.18
2017-09-20T01:09:36.779Z,8.50
2017-09-20T01:12:05.633Z,8.80
2017-09-20T01:14:34.503Z,8.70
2017-09-20T01:17:03.023Z,8.90
2017-09-20T01:19:32.655Z,8.65
2017-09-20T01:22:12.639Z,9.20
2017-09-20T01:24:41.256Z,7.72
2017-09-20T01:27:09.819Z,8.18
2017-09-20T01:29:38.676Z,8.95
2017-09-20T01:32:07.540Z,8.95
2017-09-20T01:34:37.149Z,7.57
2017-09-20T01:37:06.757Z,7.62
2017-09-20T01:39:36.385Z,9.63
2017-09-20T01:42:05.240Z,9.60
2017-09-20T01:44:34.102Z,8.57
2017-09-20T01:47:02.957Z,9.95
2017-09-20T01:49:31.806Z,9.50
2017-09-20T01:52:01.323Z,9.73
2017-09-20T01:54:30.494Z,10.00
2017-09-20T01:56:59.347Z,9.73
2017-09-20T01:59:28.206Z,9.75
2017-09-20T02:01:57.856Z,9.93
2017-09-20T02:04:26.716Z,9.63
2017-09-20T02:06:56.347Z,10.10
2017-09-20T02:09:27.049Z,9.00
2017-09-20T02:11:55.909Z,8.65
2017-09-20T02:14:24.793Z,8.80
2017-09-20T02:16:53.645Z,8.13
2017-09-20T02:19:22.505Z,8.90
2017-09-20T02:21:51.372Z,10.00
2017-09-20T02:24:20.237Z,8.52
2017-09-20T02:26:49.094Z,8.75
2017-09-20T02:29:18.733Z,9.20
2017-09-20T02:31:47.600Z,9.68
2017-09-20T02:34:17.223Z,9.52
2017-09-20T02:36:46.099Z,8.75
2017-09-20T02:39:15.720Z,8.23
2017-09-20T02:41:44.925Z,8.32
2017-09-20T02:44:13.783Z,8.40
2017-09-20T02:46:42.641Z,9.20
2017-09-20T02:49:11.313Z,8.93
2017-09-20T02:51:40.164Z,8.77
2017-09-20T02:54:08.999Z,8.00
2017-09-20T02:56:38.043Z,9.23
2017-09-20T02:59:07.328Z,8.63
2017-09-20T03:01:35.840Z,8.32
2017-09-20T03:04:05.460Z,9.23
2017-09-20T03:06:34.321Z,9.10
2017-09-20T03:09:03.408Z,9.80
2017-09-20T03:11:32.260Z,8.18
2017-09-20T03:14:01.122Z,9.05
2017-09-20T03:16:30.753Z,7.90
2017-09-20T03:19:00.407Z,8.55
2017-09-20T03:21:30.219Z,9.07
2017-09-20T03:23:58.809Z,8.45
2017-09-20T03:26:27.667Z,8.95
2017-09-20T03:28:56.528Z,9.15
2017-09-20T03:31:25.378Z,8.57
2017-09-20T03:33:54.252Z,8.90
2017-09-20T03:36:23.117Z,9.10
2017-09-20T03:38:51.980Z,9.30
2017-09-20T03:41:21.609Z,9.48
2017-09-20T03:43:50.480Z,9.23
2017-09-20T03:46:20.101Z,9.70
2017-09-20T03:48:49.713Z,7.50
2017-09-20T03:51:18.577Z,10.00
2017-09-20T03:53:48.221Z,10.25
2017-09-20T03:56:17.089Z,9.80
2017-09-20T03:58:45.951Z,10.93
2017-09-20T04:01:14.803Z,9.80
2017-09-20T04:03:43.663Z,10.30
2017-09-20T04:06:12.525Z,9.90
2017-09-20T04:08:41.391Z,10.63
2017-09-20T04:11:10.236Z,9.32
2017-09-20T04:13:39.100Z,11.07
2017-09-20T04:16:07.961Z,9.55
2017-09-20T04:18:36.833Z,10.38
2017-09-20T04:21:05.688Z,9.90
2017-09-20T04:23:35.284Z,10.27
2017-09-20T04:26:04.138Z,9.25
2017-09-20T04:28:32.998Z,10.52
2017-09-20T04:31:01.869Z,9.27
2017-09-20T04:33:31.493Z,9.45
2017-09-20T04:36:00.347Z,10.48
2017-09-20T04:38:29.218Z,9.65
2017-09-20T04:40:58.940Z,10.57
2017-09-20T04:43:28.755Z,9.75
2017-09-20T04:45:57.620Z,10.30
2017-09-20T04:48:26.504Z,11.32
2017-09-20T04:50:55.368Z,12.73
2017-09-20T04:53:24.248Z,11.15
2017-09-20T04:55:53.878Z,11.00
2017-09-20T04:58:22.738Z,11.75
2017-09-20T05:00:52.370Z,11.95
2017-09-20T05:03:21.232Z,12.90
2017-09-20T05:05:50.100Z,12.50
2017-09-20T05:08:18.970Z,11.02
2017-09-20T05:10:47.832Z,12.25
2017-09-20T05:13:16.687Z,11.25
2017-09-20T05:15:45.556Z,13.15
2017-09-20T05:18:14.520Z,11.50
2017-09-20T05:20:43.392Z,11.15
2017-09-20T05:23:13.017Z,11.85
2017-09-20T05:25:41.881Z,13.35
2017-09-20T05:28:11.508Z,12.52
2017-09-20T05:30:40.178Z,12.05
2017-09-20T05:33:09.631Z,12.37
2017-09-20T05:35:38.866Z,13.15
2017-09-20T05:38:07.719Z,12.43
2017-09-20T05:40:36.585Z,12.55
2017-09-20T05:43:05.463Z,11.70
2017-09-20T05:45:35.106Z,11.88
2017-09-20T05:48:04.940Z,13.60
2017-09-20T05:50:33.800Z,12.00
2017-09-20T05:53:02.688Z,13.32
2017-09-20T05:55:31.563Z,12.77
2017-09-20T05:58:01.182Z,14.10
2017-09-20T06:00:30.817Z,13.55
2017-09-20T06:03:00.555Z,14.20
2017-09-20T06:05:29.419Z,15.27
2017-09-20T06:07:58.289Z,14.05
2017-09-20T06:10:27.676Z,13.48
2017-09-20T06:12:57.994Z,14.75
2017-09-20T06:15:27.628Z,14.85
2017-09-20T06:17:56.496Z,14.73
2017-09-20T06:20:26.111Z,17.25
2017-09-20T06:22:57.049Z,14.68
2017-09-20T06:25:25.911Z,16.33
2017-09-20T06:27:55.093Z,15.65
2017-09-20T06:30:23.958Z,15.88
2017-09-20T06:32:52.825Z,16.23
2017-09-20T06:35:22.459Z,16.52
2017-09-20T06:37:51.339Z,16.30
2017-09-20T06:40:20.241Z,16.15
2017-09-20T06:42:49.105Z,16.10
2017-09-20T06:45:18.732Z,16.62
2017-09-20T06:47:48.916Z,17.75
2017-09-20T06:50:18.562Z,17.92
2017-09-20T06:52:48.135Z,17.08
2017-09-20T06:55:17.237Z,16.90
2017-09-20T06:57:46.105Z,18.90
2017-09-20T07:00:15.992Z,17.52
2017-09-20T07:05:18.262Z,19.55
2017-09-20T07:07:48.940Z,19.40
2017-09-20T07:10:17.809Z,19.45
2017-09-20T07:12:46.825Z,19.30
2017-09-20T07:15:15.683Z,21.00
2017-09-20T07:17:44.547Z,21.27
2017-09-20T07:20:14.171Z,20.27
2017-09-20T07:22:43.036Z,18.85
2017-09-20T07:25:13.827Z,20.50
2017-09-20T07:27:42.704Z,19.85
2017-09-20T07:30:12.390Z,23.00
2017-09-20T07:32:47.985Z,19.25
2017-09-20T07:35:16.855Z,21.33
2017-09-20T08:24:30.509Z,27.42
2017-09-20T08:26:59.369Z,24.52
2017-09-20T08:29:28.238Z,27.33
2017-09-20T08:31:57.110Z,25.62
2017-09-20T08:34:25.781Z,27.52
2017-09-20T08:36:54.715Z,27.33
2017-09-20T08:39:23.388Z,28.52
2017-09-20T08:41:52.298Z,26.85
2017-09-20T08:44:21.157Z,28.23
2017-09-20T08:46:50.029Z,26.83
2017-09-20T08:49:19.858Z,28.10
2017-09-20T08:51:48.727Z,25.98
2017-09-20T08:54:17.583Z,26.75
2017-09-20T08:56:46.484Z,28.27
2017-09-20T08:59:17.142Z,28.85
2017-09-20T09:01:46.029Z,25.15
2017-09-20T09:04:14.888Z,25.17
2017-09-20T09:06:44.585Z,24.80
2017-09-20T09:09:13.431Z,25.77
2017-09-20T09:11:42.315Z,26.17
2017-09-20T09:14:11.208Z,23.83
2017-09-20T09:16:40.954Z,26.62
2017-09-20T09:19:09.846Z,26.90
2017-09-20T09:21:38.722Z,27.02
2017-09-20T09:24:07.709Z,23.85
2017-09-20T09:26:36.969Z,22.70
2017-09-20T09:29:05.846Z,25.52
2017-09-20T09:31:35.485Z,26.10
2017-09-20T09:34:04.360Z,23.60
2017-09-20T09:36:33.861Z,25.55
2017-09-20T09:39:02.756Z,22.85
2017-09-20T09:41:32.426Z,22.52
2017-09-20T09:44:06.199Z,21.92
2017-09-20T09:46:35.082Z,21.90
2017-09-20T09:49:03.969Z,22.27
2017-09-20T09:51:32.868Z,23.17
2017-09-20T09:54:01.758Z,24.27
2017-09-20T09:56:33.888Z,23.52
2017-09-20T10:01:38.498Z,23.60
2017-09-20T10:04:10.680Z,22.65
2017-09-20T10:06:44.704Z,22.30
2017-09-20T10:11:53.460Z,21.50
2017-09-20T10:14:23.186Z,22.65
2017-09-20T10:16:53.203Z,20.40
2017-09-20T10:19:22.834Z,19.40
2017-09-20T10:21:51.705Z,21.35
2017-09-20T10:24:22.364Z,21.58
2017-09-20T10:26:51.816Z,21.20
2017-09-20T10:29:20.751Z,20.58
2017-09-20T10:31:49.617Z,22.15
2017-09-20T10:34:20.428Z,22.70
2017-09-20T10:36:49.305Z,20.85
2017-09-20T10:39:18.944Z,21.27
2017-09-20T10:41:48.469Z,18.35
2017-09-20T10:44:18.100Z,15.88
2017-09-20T10:46:46.973Z,16.27
2017-09-20T10:49:16.636Z,13.62
2017-09-20T10:51:45.337Z,12.65
2017-09-20T10:54:15.895Z,12.90
2017-09-20T10:56:44.780Z,11.75
2017-09-20T10:59:14.121Z,9.52
2017-09-20T11:01:42.980Z,9.75
2017-09-20T11:04:12.612Z,9.80
2017-09-20T11:06:41.827Z,10.38
2017-09-20T11:09:12.188Z,9.90
2017-09-20T11:11:41.049Z,10.10
2017-09-20T11:14:09.900Z,9.88
2017-09-20T11:16:40.569Z,8.63
2017-09-20T11:19:09.585Z,7.60
2017-09-20T11:21:39.027Z,8.80
2017-09-20T11:24:10.672Z,7.87
2017-09-20T11:26:39.570Z,8.07
2017-09-20T11:29:08.423Z,8.50
2017-09-20T11:31:37.297Z,10.02
2017-09-20T11:34:06.152Z,8.10
2017-09-20T11:36:35.000Z,7.65
2017-09-20T11:39:04.478Z,7.70
2017-09-20T11:41:33.366Z,8.75
2017-09-20T11:44:14.620Z,8.40
2017-09-20T11:46:43.873Z,7.72
2017-09-20T11:49:13.423Z,7.85
2017-09-20T11:51:43.059Z,7.30
2017-09-20T11:54:11.919Z,7.40
2017-09-20T11:56:40.803Z,7.82
2017-09-20T11:59:10.498Z,5.95
2017-09-20T12:01:39.343Z,5.50
2017-09-20T12:04:08.196Z,7.47
2017-09-20T12:06:37.053Z,4.65
2017-09-20T12:09:05.556Z,4.18
2017-09-20T12:11:34.410Z,4.20
2017-09-20T12:14:03.290Z,4.70
2017-09-20T12:16:33.761Z,5.50
2017-09-20T12:19:02.632Z,6.40
2017-09-20T12:21:31.951Z,5.43
2017-09-20T12:24:00.915Z,5.97
2017-09-20T12:26:29.768Z,6.35
2017-09-20T12:28:58.667Z,5.10
2017-09-20T12:31:28.287Z,6.10
2017-09-20T12:33:58.564Z,5.93
2017-09-20T12:36:27.429Z,4.57
2017-09-20T12:38:56.312Z,5.40
2017-09-20T12:41:25.177Z,5.45
2017-09-20T12:43:55.581Z,6.53
2017-09-20T12:46:24.521Z,5.68
2017-09-20T12:48:53.373Z,5.12
2017-09-20T12:51:22.305Z,6.10
2017-09-20T12:53:51.194Z,5.35
2017-09-20T12:56:20.059Z,7.07
2017-09-20T12:58:50.737Z,6.30
2017-09-20T13:01:19.595Z,4.72
2017-09-20T13:03:49.066Z,4.47
2017-09-20T13:08:53.174Z,4.65
2017-09-20T13:11:23.903Z,4.00
2017-09-20T13:13:54.923Z,3.97
2017-09-20T13:16:23.895Z,3.60
2017-09-20T13:18:52.771Z,3.83
2017-09-20T13:21:21.627Z,4.62
2017-09-20T13:23:50.493Z,4.00
2017-09-20T13:26:20.375Z,3.28
2017-09-20T13:28:53.648Z,3.42
2017-09-20T13:31:26.289Z,2.95
2017-09-20T13:33:55.146Z,4.53
2017-09-20T13:36:25.088Z,4.20
2017-09-20T13:38:55.600Z,3.80
2017-09-20T13:41:26.096Z,3.95
2017-09-20T13:43:54.936Z,4.15
2017-09-20T13:46:23.885Z,4.10
2017-09-20T13:48:54.434Z,4.32
2017-09-20T13:51:25.127Z,3.22
2017-09-20T13:54:33.966Z,2.97
2017-09-20T13:57:07.071Z,2.20
2017-09-20T13:59:36.704Z,2.00
2017-09-20T14:04:40.363Z,2.40
2017-09-20T14:07:09.590Z,2.12
2017-09-20T14:09:39.100Z,1.85
2017-09-20T14:12:07.979Z,2.72
2017-09-20T14:14:36.821Z,2.50
2017-09-20T14:17:05.563Z,1.52
2017-09-20T14:19:34.905Z,2.00
2017-09-20T14:22:05.202Z,2.25
2017-09-20T14:24:34.889Z,1.60
2017-09-20T14:27:03.766Z,2.03
2017-09-20T14:29:32.629Z,1.20
2017-09-20T14:32:06.436Z,1.45
2017-09-20T14:34:35.326Z,1.30
2017-09-20T14:37:05.922Z,1.40
2017-09-20T14:39:34.807Z,1.62
2017-09-20T14:42:04.648Z,1.30
2017-09-20T14:44:34.318Z,1.33
2017-09-20T14:47:03.168Z,1.40
2017-09-20T14:49:32.804Z,1.10
2017-09-20T14:52:01.655Z,1.55
2017-09-20T14:54:30.515Z,1.90
2017-09-20T14:56:59.360Z,1.45
2017-09-20T14:59:29.109Z,1.50
2017-09-20T15:01:57.953Z,1.60
2017-09-20T15:04:26.808Z,2.22
2017-09-20T15:06:55.689Z,2.45
2017-09-20T15:09:24.565Z,2.67
2017-09-20T15:11:54.205Z,2.78
2017-09-20T15:14:23.048Z,3.25
2017-09-20T15:16:51.896Z,2.40
2017-09-20T15:19:20.773Z,3.20
2017-09-20T15:21:49.627Z,2.50
2017-09-20T15:24:18.471Z,2.08
2017-09-20T15:26:48.003Z,1.90
2017-09-20T15:29:16.894Z,1.90
2017-09-20T15:31:45.756Z,1.60
2017-09-20T15:34:14.616Z,1.65
2017-09-20T15:36:43.480Z,2.60
2017-09-20T15:39:12.328Z,1.45
2017-09-20T15:41:41.723Z,1.40
2017-09-20T15:44:10.580Z,1.70
2017-09-20T15:46:39.434Z,1.80
2017-09-20T15:49:09.927Z,2.08
2017-09-20T15:51:39.959Z,1.52
2017-09-20T15:54:08.804Z,1.60
2017-09-20T15:56:37.683Z,1.73
2017-09-20T15:59:15.988Z,1.80
2017-09-20T16:01:45.871Z,2.20
2017-09-20T16:04:14.721Z,2.10
2017-09-20T16:06:43.956Z,2.60
2017-09-20T16:09:12.799Z,2.05
2017-09-20T16:11:43.305Z,1.92
2017-09-20T16:14:13.081Z,2.40
2017-09-20T16:16:41.661Z,2.62
2017-09-20T16:19:10.508Z,2.55
2017-09-20T16:21:39.396Z,2.25
2017-09-20T16:24:08.237Z,2.62
2017-09-20T16:26:37.076Z,2.70
2017-09-20T16:29:06.168Z,2.45
2017-09-20T16:31:36.063Z,2.37
2017-09-20T16:34:05.681Z,2.72
2017-09-20T16:36:34.532Z,2.15
2017-09-20T16:39:03.197Z,2.00
2017-09-20T16:41:32.118Z,2.35
2017-09-20T16:44:00.971Z,1.90
2017-09-20T16:46:29.813Z,2.33
2017-09-20T16:48:58.653Z,2.30
2017-09-20T16:51:28.873Z,2.10
2017-09-20T16:53:58.077Z,2.40
2017-09-20T16:56:26.577Z,2.60
2017-09-20T16:58:56.098Z,2.28
2017-09-20T17:01:24.256Z,2.20
2017-09-20T17:03:53.111Z,2.50
2017-09-20T17:06:21.966Z,2.22
2017-09-20T17:08:50.817Z,2.22
2017-09-20T17:11:19.708Z,2.60
2017-09-20T17:13:49.331Z,2.90
2017-09-20T17:16:18.180Z,2.87
2017-09-20T17:18:48.011Z,3.28
2017-09-20T17:21:16.864Z,3.05
2017-09-20T17:23:46.484Z,2.90
2017-09-20T17:26:17.332Z,3.30
2017-09-20T17:28:46.194Z,3.12
2017-09-20T17:31:16.548Z,4.47
2017-09-20T17:33:45.397Z,4.05
2017-09-20T17:36:14.252Z,3.70
2017-09-20T17:38:43.099Z,4.65
2017-09-20T17:41:11.933Z,4.10
2017-09-20T17:43:41.320Z,4.50
2017-09-20T17:46:10.630Z,3.83
2017-09-20T17:48:39.472Z,4.37
2017-09-20T17:51:08.405Z,3.60
2017-09-20T17:53:37.248Z,4.05
2017-09-20T17:56:06.088Z,3.40
2017-09-20T17:58:34.924Z,3.53
2017-09-20T18:01:03.795Z,4.25
2017-09-20T18:03:32.641Z,4.18
2017-09-20T18:06:02.248Z,4.03
2017-09-20T18:08:32.793Z,4.05
2017-09-20T18:11:02.468Z,4.07
2017-09-20T18:13:31.623Z,3.70
2017-09-20T18:16:01.499Z,4.03
2017-09-20T18:18:30.836Z,3.65
2017-09-20T18:20:59.671Z,4.30
2017-09-20T18:23:28.323Z,4.12
2017-09-20T18:25:57.198Z,3.78
2017-09-20T18:28:26.052Z,4.20
2017-09-20T18:30:54.896Z,4.00
2017-09-20T18:33:23.769Z,4.28
2017-09-20T18:35:52.816Z,3.90
2017-09-20T18:38:21.655Z,4.07
2017-09-20T18:40:50.496Z,4.15
2017-09-20T18:43:19.151Z,4.20
2017-09-20T18:45:48.004Z,3.97
2017-09-20T18:48:17.519Z,4.50
2017-09-20T18:50:46.387Z,5.62
2017-09-20T18:53:15.996Z,5.40
2017-09-20T18:55:44.836Z,4.28
2017-09-20T18:58:13.688Z,5.15
2017-09-20T19:00:56.651Z,5.30
2017-09-20T19:03:27.605Z,6.25
2017-09-20T19:05:57.373Z,5.75
2017-09-20T19:08:27.626Z,4.72
2017-09-20T19:10:56.510Z,5.03
2017-09-20T19:13:25.807Z,3.70
2017-09-20T19:15:54.668Z,4.15
2017-09-20T19:18:24.311Z,4.90
2017-09-20T19:20:53.157Z,4.47
2017-09-20T19:23:23.951Z,5.00
2017-09-20T19:25:54.264Z,4.97
2017-09-20T19:28:24.803Z,5.10
2017-09-20T19:30:53.471Z,5.97
2017-09-20T19:33:23.630Z,5.50
2017-09-20T19:35:55.935Z,7.18
2017-09-20T19:38:26.880Z,6.05
2017-09-20T19:40:56.310Z,5.97
2017-09-20T19:43:25.164Z,6.30
2017-09-20T19:45:54.154Z,5.70
2017-09-20T19:48:23.027Z,6.03
2017-09-20T19:53:25.841Z,6.55
2017-09-20T19:55:54.868Z,6.75
2017-09-20T19:58:23.716Z,6.20
2017-09-20T20:00:52.567Z,6.53
2017-09-20T20:03:21.236Z,6.90
2017-09-20T20:05:50.100Z,7.12
2017-09-20T20:08:19.733Z,8.05
2017-09-20T20:10:51.293Z,7.43
2017-09-20T20:13:20.139Z,6.72
2017-09-20T20:15:49.005Z,7.10
2017-09-20T20:18:17.902Z,7.68
2017-09-20T20:20:46.761Z,8.40
2017-09-20T20:23:16.885Z,8.65
2017-09-20T20:25:45.748Z,8.52
2017-09-20T20:28:16.431Z,7.10
2017-09-20T20:30:45.274Z,6.65
2017-09-20T20:33:14.892Z,7.93
2017-09-20T20:35:44.552Z,7.32
2017-09-20T20:38:13.469Z,8.40
2017-09-20T20:40:42.337Z,8.63
2017-09-20T20:43:11.180Z,8.40
2017-09-20T20:45:40.031Z,7.75
2017-09-20T20:48:08.585Z,7.53
2017-09-20T20:50:37.756Z,8.00
2017-09-20T20:53:09.103Z,7.53
2017-09-20T20:55:37.973Z,8.20
2017-09-20T20:58:07.603Z,8.10
2017-09-20T21:00:36.467Z,7.30
2017-09-20T21:03:06.515Z,8.65
2017-09-20T21:05:35.808Z,8.65
2017-09-20T21:08:05.495Z,8.35
2017-09-20T21:10:35.122Z,9.30
2017-09-20T21:13:04.759Z,8.07
2017-09-20T21:15:33.445Z,8.75
2017-09-20T21:18:02.125Z,8.90
2017-09-20T21:20:31.010Z,8.02
2017-09-20T21:22:59.871Z,8.90
2017-09-20T21:25:29.491Z,7.87
2017-09-20T21:27:59.235Z,8.05
2017-09-20T21:30:28.087Z,9.20
2017-09-20T21:32:57.708Z,7.65
2017-09-20T21:35:28.295Z,8.13
2017-09-20T21:38:07.180Z,7.62
2017-09-20T21:40:36.029Z,7.47
2017-09-20T21:43:05.139Z,7.65
2017-09-20T21:45:34.762Z,9.45
2017-09-20T21:48:04.374Z,7.35
2017-09-20T21:50:33.993Z,7.75
2017-09-20T21:53:02.892Z,7.72
2017-09-20T21:55:33.787Z,8.85
2017-09-20T21:58:02.632Z,8.20
2017-09-20T22:00:35.293Z,6.57
2017-09-20T22:03:04.116Z,8.18
2017-09-20T22:05:32.970Z,6.50
2017-09-20T22:08:02.824Z,6.30
2017-09-20T22:10:31.685Z,7.10
2017-09-20T22:13:00.540Z,7.80
2017-09-20T22:15:40.593Z,8.02
2017-09-20T22:18:21.675Z,8.07
2017-09-20T22:21:01.787Z,6.35
2017-09-20T22:23:41.883Z,7.90
2017-09-20T22:26:22.020Z,7.07
2017-09-20T22:28:50.675Z,7.82
2017-09-20T22:31:19.639Z,8.27
2017-09-20T22:33:48.514Z,9.43
2017-09-20T22:36:18.492Z,8.32
2017-09-20T22:38:48.445Z,8.45
2017-09-20T22:41:17.770Z,8.48
2017-09-20T22:43:46.615Z,8.02
2017-09-20T22:46:15.510Z,8.20
2017-09-20T22:48:46.372Z,7.65
2017-09-20T22:51:15.526Z,8.52
2017-09-20T22:53:44.371Z,8.68
2017-09-20T22:56:13.233Z,8.48
2017-09-20T22:58:42.109Z,8.32
2017-09-20T23:01:10.964Z,8.27
2017-09-20T23:03:39.820Z,9.15
2017-09-20T23:06:09.431Z,8.00
2017-09-20T23:08:39.756Z,7.47
2017-09-20T23:11:09.364Z,7.25
2017-09-20T23:13:38.217Z,7.82
2017-09-20T23:16:07.741Z,8.70
2017-09-20T23:18:36.579Z,7.12
2017-09-20T23:21:05.428Z,7.60
2017-09-20T23:23:34.271Z,8.00
2017-09-20T23:26:03.138Z,7.55
2017-09-20T23:28:32.564Z,7.75
2017-09-20T23:31:01.412Z,7.35
2017-09-20T23:33:31.051Z,8.57
2017-09-20T23:35:59.909Z,7.97
2017-09-20T23:38:28.775Z,8.70
2017-09-20T23:40:57.656Z,8.40
2017-09-20T23:43:26.616Z,8.93
2017-09-20T23:45:55.475Z,8.35
2017-09-20T23:48:24.341Z,9.18
2017-09-20T23:50:53.203Z,10.18
2017-09-20T23:53:22.050Z,8.18
2017-09-20T23:55:52.647Z,10.70
2017-09-20T23:58:21.515Z,8.05
